^^
Marion, Virginia Banner
 

Adwolf, VA. Station Historical Data
[ Providing Data Since 6/07/2007 ]
Station Historical Data
Daily Summary for December 07, 2017 Units:  English    Metric   Both
« Previous Day
Next Day »
Daily Weekly Monthly Yearly Custom
  High: Low: Average:
Temperature: 42.7 °F 29.1 °F 33.7 °F
Dew Point: 28.1 °F 22.4 °F 25.1 °F
Humidity: 83% 47% 71%
Wind Speed: 12.7mph 0.0mph 4.2mph
Wind Gust: 12.7mph - -
Wind- - WSW
Pressure: 30.24 in 30.12 in -
Precipitation: 0.00 in    
Historical Graphs
 
 
Tabular Data for December 07, 2017
Time Temperature Dew Point Pressure Wind Wind Speed Wind Gust Humidity Rainfall Rate (Hourly) solar Conditions
00:03 32.2 °F 25.5 °F 30.21 in WSW 4.6 mph 4.6 mph 76% 0.00 in WeatherDisplay:10.37 W/m2 CLR
00:05 32.2 °F 25.5 °F 30.21 in SW 4.6 mph 4.6 mph 76% 0.00 in WeatherDisplay:10.37 W/m2 RA
00:10 32.1 °F 25.4 °F 30.21 in SW 3.5 mph 3.5 mph 76% 0.00 in WeatherDisplay:10.37 W/m2 RA
00:15 32.1 °F 25.4 °F 30.21 in SW 3.5 mph 3.5 mph 76% 0.00 in WeatherDisplay:10.37 W/m2 CLR
00:20 32.0 °F 25.6 °F 30.21 in SW 4.0 mph 4.0 mph 77% 0.00 in WeatherDisplay:10.37 W/m2 CLR
00:25 32.0 °F 25.3 °F 30.21 in SW 4.0 mph 4.0 mph 76% 0.00 in WeatherDisplay:10.37 W/m2 CLR
00:30 32.0 °F 25.3 °F 30.21 in SW 3.5 mph 3.5 mph 76% 0.00 in WeatherDisplay:10.37 W/m2 CLR
00:35 32.0 °F 25.0 °F 30.21 in WSW 5.0 mph 5.0 mph 75% 0.00 in WeatherDisplay:10.37 W/m2 CLR
00:40 32.1 °F 24.7 °F 30.21 in SW 5.0 mph 5.0 mph 74% 0.00 in WeatherDisplay:10.37 W/m2 CLR
00:45 32.2 °F 24.8 °F 30.21 in WSW 4.6 mph 4.6 mph 74% 0.00 in WeatherDisplay:10.37 W/m2 CLR
00:50 32.2 °F 24.8 °F 30.21 in SW 3.5 mph 3.5 mph 74% 0.00 in WeatherDisplay:10.37 W/m2 CLR
00:55 32.1 °F 24.7 °F 30.20 in WSW 3.5 mph 3.5 mph 74% 0.00 in WeatherDisplay:10.37 W/m2 CLR
01:00 32.0 °F 25.0 °F 30.20 in SW 3.5 mph 3.5 mph 75% 0.00 in WeatherDisplay:10.37 W/m2 CLR
01:05 32.0 °F 24.6 °F 30.20 in WSW 3.5 mph 3.5 mph 74% 0.00 in WeatherDisplay:10.37 W/m2 CLR
01:10 32.0 °F 25.0 °F 30.20 in SW 3.5 mph 3.5 mph 75% 0.00 in WeatherDisplay:10.37 W/m2 CLR
01:15 32.0 °F 25.0 °F 30.20 in SW 5.0 mph 5.0 mph 75% 0.00 in WeatherDisplay:10.37 W/m2 CLR
01:20 32.0 °F 25.0 °F 30.20 in SSW 4.0 mph 4.0 mph 75% 0.00 in WeatherDisplay:10.37 W/m2 CLR
01:25 32.0 °F 25.0 °F 30.20 in SW 3.5 mph 3.5 mph 75% 0.00 in WeatherDisplay:10.37 W/m2 CLR
01:30 32.0 °F 25.0 °F 30.20 in SW 3.5 mph 3.5 mph 75% 0.00 in WeatherDisplay:10.37 W/m2 CLR
01:35 31.9 °F 24.9 °F 30.20 in SW 3.5 mph 3.5 mph 75% 0.00 in WeatherDisplay:10.37 W/m2 CLR
01:40 31.9 °F 24.9 °F 30.21 in SW 3.5 mph 3.5 mph 75% 0.00 in WeatherDisplay:10.37 W/m2 CLR
01:45 31.8 °F 24.8 °F 30.20 in WSW 4.6 mph 4.6 mph 75% 0.00 in WeatherDisplay:10.37 W/m2 CLR
01:50 31.8 °F 24.8 °F 30.20 in SSW 4.6 mph 4.6 mph 75% 0.00 in WeatherDisplay:10.37 W/m2 CLR
01:55 31.7 °F 24.7 °F 30.20 in WSW 5.0 mph 5.0 mph 75% 0.00 in WeatherDisplay:10.37 W/m2 CLR
02:00 31.6 °F 24.6 °F 30.20 in SW 4.6 mph 4.6 mph 75% 0.00 in WeatherDisplay:10.37 W/m2 CLR
02:05 31.5 °F 24.8 °F 30.21 in WSW 4.6 mph 4.6 mph 76% 0.00 in WeatherDisplay:10.37 W/m2 CLR
02:10 31.4 °F 24.7 °F 30.20 in SW 3.5 mph 3.5 mph 76% 0.00 in WeatherDisplay:10.37 W/m2 CLR
02:15 31.4 °F 24.7 °F 30.20 in SSW 3.5 mph 3.5 mph 76% 0.00 in WeatherDisplay:10.37 W/m2 CLR
02:20 31.3 °F 24.9 °F 30.21 in SW 3.5 mph 3.5 mph 77% 0.00 in WeatherDisplay:10.37 W/m2 CLR
02:25 31.2 °F 25.1 °F 30.21 in SW 3.5 mph 3.5 mph 78% 0.00 in WeatherDisplay:10.37 W/m2 CLR
02:30 31.1 °F 24.7 °F 30.21 in SW 3.5 mph 3.5 mph 77% 0.00 in WeatherDisplay:10.37 W/m2 CLR
02:35 31.1 °F 25.0 °F 30.21 in West 3.5 mph 3.5 mph 78% 0.00 in WeatherDisplay:10.37 W/m2 CLR
02:40 31.0 °F 24.9 °F 30.21 in WSW 3.5 mph 3.5 mph 78% 0.00 in WeatherDisplay:10.37 W/m2 CLR
02:45 31.0 °F 24.9 °F 30.21 in WSW 3.5 mph 3.5 mph 78% 0.00 in WeatherDisplay:10.37 W/m2 CLR
02:50 30.9 °F 24.8 °F 30.21 in WSW 2.3 mph 2.3 mph 78% 0.00 in WeatherDisplay:10.37 W/m2 CLR
02:55 30.8 °F 24.7 °F 30.21 in WSW 2.3 mph 2.3 mph 78% 0.00 in WeatherDisplay:10.37 W/m2 CLR
03:00 30.6 °F 24.9 °F 30.21 in WSW 2.3 mph 2.3 mph 79% 0.00 in WeatherDisplay:10.37 W/m2 CLR
03:05 30.6 °F 24.9 °F 30.21 in WSW 3.0 mph 3.0 mph 79% 0.00 in WeatherDisplay:10.37 W/m2 CLR
03:10 30.3 °F 24.6 °F 30.21 in WSW 2.3 mph 2.3 mph 79% 0.00 in WeatherDisplay:10.37 W/m2 CLR
03:15 30.1 °F 24.7 °F 30.21 in WSW 3.0 mph 3.0 mph 80% 0.00 in WeatherDisplay:10.37 W/m2 CLR
03:20 30.0 °F 24.6 °F 30.21 in WSW 2.3 mph 2.3 mph 80% 0.00 in WeatherDisplay:10.37 W/m2 CLR
03:25 29.8 °F 24.7 °F 30.21 in WSW 1.2 mph 1.2 mph 81% 0.00 in WeatherDisplay:10.37 W/m2 CLR
03:30 29.6 °F 24.5 °F 30.20 in WSW 1.2 mph 1.2 mph 81% 0.00 in WeatherDisplay:10.37 W/m2 CLR
03:35 29.6 °F 24.5 °F 30.21 in WSW 1.2 mph 1.2 mph 81% 0.00 in WeatherDisplay:10.37 W/m2 CLR
03:40 29.5 °F 24.7 °F 30.21 in WSW 1.2 mph 1.2 mph 82% 0.00 in WeatherDisplay:10.37 W/m2 CLR
03:45 29.4 °F 24.6 °F 30.21 in WSW 2.3 mph 2.3 mph 82% 0.00 in WeatherDisplay:10.37 W/m2 CLR
03:50 29.4 °F 24.6 °F 30.20 in WSW 2.3 mph 2.3 mph 82% 0.00 in WeatherDisplay:10.37 W/m2 CLR
03:55 29.4 °F 24.6 °F 30.21 in WSW 2.0 mph 2.0 mph 82% 0.00 in WeatherDisplay:10.37 W/m2 CLR
04:00 29.4 °F 24.6 °F 30.20 in WSW 2.3 mph 2.3 mph 82% 0.00 in WeatherDisplay:10.37 W/m2 CLR
04:05 29.4 °F 24.3 °F 30.20 in WSW 2.3 mph 2.3 mph 81% 0.00 in WeatherDisplay:10.37 W/m2 CLR
04:10 29.3 °F 24.5 °F 30.20 in WSW 1.0 mph   82% 0.00 in WeatherDisplay:10.37 W/m2 CLR
04:15 29.3 °F 24.5 °F 30.20 in Calm     82% 0.00 in WeatherDisplay:10.37 W/m2 CLR
04:20 29.3 °F 24.5 °F 30.20 in SW 4.0 mph   82% 0.00 in WeatherDisplay:10.37 W/m2 CLR
04:25 29.3 °F 24.5 °F 30.20 in SW 2.3 mph 2.3 mph 82% 0.00 in WeatherDisplay:10.37 W/m2 CLR
04:30 29.3 °F 24.5 °F 30.20 in SW 3.5 mph 3.5 mph 82% 0.00 in WeatherDisplay:10.37 W/m2 CLR
04:35 29.2 °F 24.4 °F 30.20 in SW 3.5 mph 3.5 mph 82% 0.00 in WeatherDisplay:10.37 W/m2 CLR
04:40 29.2 °F 24.4 °F 30.20 in SW 2.3 mph 2.3 mph 82% 0.00 in WeatherDisplay:10.37 W/m2 CLR
04:45 29.2 °F 24.4 °F 30.20 in SW 2.3 mph 2.3 mph 82% 0.00 in WeatherDisplay:10.37 W/m2 CLR
04:50 29.2 °F 24.4 °F 30.20 in SW 3.5 mph 3.5 mph 82% 0.00 in WeatherDisplay:10.37 W/m2 CLR
04:55 29.2 °F 24.4 °F 30.20 in WSW 4.0 mph 4.0 mph 82% 0.00 in WeatherDisplay:10.37 W/m2 CLR
05:00 29.3 °F 24.2 °F 30.20 in SW 3.5 mph 3.5 mph 81% 0.00 in WeatherDisplay:10.37 W/m2 CLR
05:05 29.3 °F 24.2 °F 30.20 in SW 3.5 mph 3.5 mph 81% 0.00 in WeatherDisplay:10.37 W/m2 CLR
05:10 29.3 °F 24.5 °F 30.20 in SW 3.5 mph 3.5 mph 82% 0.00 in WeatherDisplay:10.37 W/m2 CLR
05:15 29.4 °F 24.3 °F 30.21 in SW 3.5 mph 3.5 mph 81% 0.00 in WeatherDisplay:10.37 W/m2 CLR
05:20 29.4 °F 24.3 °F 30.20 in SW 3.5 mph 3.5 mph 81% 0.00 in WeatherDisplay:10.37 W/m2 CLR
05:25 29.4 °F 24.3 °F 30.20 in SW 3.5 mph 3.5 mph 81% 0.00 in WeatherDisplay:10.37 W/m2 SCT
05:30 29.5 °F 24.4 °F 30.20 in SW 2.3 mph 2.3 mph 81% 0.00 in WeatherDisplay:10.37 W/m2 SCT
05:35 29.5 °F 24.4 °F 30.20 in SW 2.3 mph 2.3 mph 81% 0.00 in WeatherDisplay:10.37 W/m2 SCT
05:40 29.5 °F 24.4 °F 30.21 in SW 2.3 mph 2.3 mph 81% 0.00 in WeatherDisplay:10.37 W/m2 SCT
05:45 29.6 °F 24.5 °F 30.21 in SW 3.5 mph 3.5 mph 81% 0.00 in WeatherDisplay:10.37 W/m2 SCT
05:50 29.6 °F 24.5 °F 30.21 in West 3.5 mph 3.5 mph 81% 0.00 in WeatherDisplay:10.37 W/m2 SCT
05:55 29.7 °F 24.6 °F 30.21 in WSW 3.5 mph 3.5 mph 81% 0.00 in WeatherDisplay:10.37 W/m2 BKN
06:00 29.7 °F 24.6 °F 30.21 in WSW 2.3 mph 2.3 mph 81% 0.00 in WeatherDisplay:10.37 W/m2 BKN
06:05 29.7 °F 24.3 °F 30.20 in West 2.3 mph 2.3 mph 80% 0.00 in WeatherDisplay:10.37 W/m2 BKN
06:10 29.7 °F 24.3 °F 30.20 in SW 4.0 mph 4.0 mph 80% 0.00 in WeatherDisplay:10.37 W/m2 BKN
06:15 29.7 °F 24.3 °F 30.20 in WSW 3.5 mph 3.5 mph 80% 0.00 in WeatherDisplay:10.37 W/m2 BKN
06:20 29.7 °F 24.6 °F 30.20 in SW 3.5 mph 3.5 mph 81% 0.00 in WeatherDisplay:10.37 W/m2 OVC
06:25 29.7 °F 24.6 °F 30.20 in SW 2.3 mph 2.3 mph 81% 0.00 in WeatherDisplay:10.37 W/m2 BKN
06:30 29.7 °F 24.6 °F 30.21 in WSW 2.3 mph 2.3 mph 81% 0.00 in WeatherDisplay:10.37 W/m2 BKN
06:35 29.7 °F 24.3 °F 30.20 in SW 3.5 mph 3.5 mph 80% 0.00 in WeatherDisplay:10.37 W/m2 BKN
06:40 29.8 °F 24.4 °F 30.20 in SW 3.5 mph 3.5 mph 80% 0.00 in WeatherDisplay:10.37 W/m2 BKN
06:41 29.8 °F 24.4 °F 30.20 in WSW 3.5 mph 3.5 mph 80% 0.00 in WeatherDisplay:10.37 W/m2 BKN
06:46 29.8 °F 24.4 °F 30.20 in WSW 3.5 mph 3.5 mph 80% 0.00 in WeatherDisplay:10.37 W/m2 BKN
06:51 29.9 °F 24.5 °F 30.20 in WSW 3.5 mph 3.5 mph 80% 0.00 in WeatherDisplay:10.37 W/m2 BKN
06:56 29.9 °F 24.5 °F 30.20 in WSW 2.3 mph 2.3 mph 80% 0.00 in WeatherDisplay:10.37 W/m2 BKN
07:01 29.8 °F 24.7 °F 30.20 in WSW 1.2 mph 1.2 mph 81% 0.00 in WeatherDisplay:10.37 W/m2 BKN
07:06 29.8 °F 24.4 °F 30.20 in WSW 2.3 mph 2.3 mph 80% 0.00 in WeatherDisplay:10.37 W/m2 BKN
07:11 29.7 °F 24.6 °F 30.21 in WSW 2.0 mph 2.0 mph 81% 0.00 in WeatherDisplay:10.37 W/m2 BKN
07:16 29.6 °F 24.5 °F 30.21 in SW 2.3 mph 2.3 mph 81% 0.00 in WeatherDisplay:10.37 W/m2 BKN
07:21 29.4 °F 24.3 °F 30.21 in SW 2.3 mph 2.3 mph 81% 0.00 in WeatherDisplay:10.37 W/m2 BKN
07:26 29.3 °F 24.5 °F 30.21 in SW 2.3 mph 2.3 mph 82% 0.00 in WeatherDisplay:10.37 W/m2 BKN
07:31 29.3 °F 24.5 °F 30.21 in SW 2.3 mph 2.3 mph 82% 0.00 in WeatherDisplay:10.37 W/m2 BKN
07:36 29.2 °F 24.4 °F 30.21 in SW 1.2 mph 1.2 mph 82% 0.00 in WeatherDisplay:10.37 W/m2 BKN
07:41 29.1 °F 24.3 °F 30.21 in SW 2.3 mph 2.3 mph 82% 0.00 in WeatherDisplay:10.37 W/m2 BKN
07:46 29.2 °F 24.7 °F 30.21 in WSW 2.3 mph 2.3 mph 83% 0.00 in WeatherDisplay:10.37 W/m2 BKN
07:51 29.3 °F 24.5 °F 30.21 in SSW 3.5 mph 3.5 mph 82% 0.00 in WeatherDisplay:10.37 W/m2 BKN
07:56 29.4 °F 24.6 °F 30.21 in SSW 3.5 mph 3.5 mph 82% 0.00 in WeatherDisplay:10.37 W/m2 BKN
08:02 29.6 °F 24.8 °F 30.22 in SW 2.3 mph 2.3 mph 82% 0.00 in WeatherDisplay:10.37 W/m2 BKN
08:07 29.7 °F 24.9 °F 30.22 in SW 2.3 mph 2.3 mph 82% 0.00 in WeatherDisplay:10.37 W/m2 BKN
08:12 29.8 °F 25.0 °F 30.22 in SW 2.3 mph 2.3 mph 82% 0.00 in WeatherDisplay:10.37 W/m2 BKN
08:17 29.9 °F 25.1 °F 30.22 in SW 2.3 mph 2.3 mph 82% 0.00 in WeatherDisplay:10.37 W/m2 BKN
08:32 30.2 °F 25.1 °F 30.22 in SW 3.5 mph 3.5 mph 81% 0.00 in WeatherDisplay:10.37 W/m2 CLR
08:37 30.3 °F 25.2 °F 30.21 in SW 3.5 mph 3.5 mph 81% 0.00 in WeatherDisplay:10.37 W/m2 CLR
08:42 30.4 °F 25.3 °F 30.22 in West 3.5 mph 3.5 mph 81% 0.00 in WeatherDisplay:10.37 W/m2 CLR
08:52 30.6 °F 25.8 °F 30.21 in WSW 3.5 mph 3.5 mph 82% 0.00 in WeatherDisplay:10.37 W/m2 CLR
08:57 30.7 °F 25.6 °F 30.21 in WSW 3.5 mph 3.5 mph 81% 0.00 in WeatherDisplay:10.37 W/m2 CLR
09:02 30.8 °F 25.7 °F 30.22 in WSW 3.5 mph 3.5 mph 81% 0.00 in WeatherDisplay:10.37 W/m2 CLR
09:07 30.9 °F 26.1 °F 30.22 in WSW 3.5 mph 3.5 mph 82% 0.00 in WeatherDisplay:10.37 W/m2 CLR
09:17 31.2 °F 26.0 °F 30.22 in WSW 5.8 mph 5.8 mph 81% 0.00 in WeatherDisplay:10.37 W/m2 CLR
09:22 31.5 °F 26.3 °F 30.22 in West 5.8 mph 5.8 mph 81% 0.00 in WeatherDisplay:10.37 W/m2 CLR
09:32 31.9 °F 26.7 °F 30.22 in SSW 5.8 mph 5.8 mph 81% 0.00 in WeatherDisplay:10.37 W/m2 CLR
09:37 32.1 °F 26.9 °F 30.22 in WSW 4.6 mph 4.6 mph 81% 0.00 in WeatherDisplay:10.37 W/m2 CLR
09:42 32.6 °F 27.1 °F 30.22 in SW 5.8 mph 5.8 mph 80% 0.00 in WeatherDisplay:10.37 W/m2 CLR
09:47 33.0 °F 27.2 °F 30.22 in West 5.8 mph 5.8 mph 79% 0.00 in WeatherDisplay:10.37 W/m2 CLR
09:52 33.4 °F 27.6 °F 30.23 in SW 6.9 mph 6.9 mph 79% 0.00 in WeatherDisplay:10.37 W/m2 CLR
09:57 33.8 °F 27.7 °F 30.24 in SSW 7.0 mph 7.0 mph 78% 0.00 in WeatherDisplay:10.37 W/m2 CLR
10:07 34.6 °F 27.5 °F 30.24 in West 6.9 mph 6.9 mph 75% 0.00 in WeatherDisplay:10.37 W/m2 CLR
10:12 34.5 °F 27.1 °F 30.24 in WSW 8.1 mph 8.1 mph 74% 0.00 in WeatherDisplay:10.37 W/m2 CLR
10:22 34.8 °F 27.7 °F 30.24 in WSW 9.2 mph 9.2 mph 75% 0.00 in WeatherDisplay:10.37 W/m2 CLR
10:27 35.0 °F 27.9 °F 30.24 in West 6.9 mph 6.9 mph 75% 0.00 in WeatherDisplay:10.37 W/m2 CLR
10:37 35.0 °F 26.9 °F 30.23 in WSW 7.0 mph 7.0 mph 72% 0.00 in WeatherDisplay:10.37 W/m2 CLR
10:47 35.0 °F 26.5 °F 30.23 in West 9.2 mph 9.2 mph 71% 0.00 in WeatherDisplay:10.37 W/m2 CLR
10:52 35.0 °F 26.5 °F 30.23 in WSW 10.4 mph 10.4 mph 71% 0.00 in WeatherDisplay:10.37 W/m2 CLR
11:12 35.9 °F 27.1 °F 30.23 in SW 8.0 mph 8.0 mph 70% 0.00 in WeatherDisplay:10.37 W/m2 CLR
11:17 36.4 °F 27.9 °F 30.23 in WSW 5.8 mph 5.8 mph 71% 0.00 in WeatherDisplay:10.37 W/m2 CLR
11:27 36.9 °F 27.7 °F 30.21 in WSW 10.4 mph 10.4 mph 69% 0.00 in WeatherDisplay:10.37 W/m2 CLR
11:32 36.7 °F 27.5 °F 30.21 in SW 8.1 mph 8.1 mph 69% 0.00 in WeatherDisplay:10.37 W/m2 CLR
11:37 37.2 °F 28.0 °F 30.21 in SW 6.9 mph 6.9 mph 69% 0.00 in WeatherDisplay:10.37 W/m2 CLR
11:42 37.9 °F 27.9 °F 30.21 in West 6.9 mph 6.9 mph 67% 0.00 in WeatherDisplay:10.37 W/m2 CLR
11:47 37.9 °F 27.2 °F 30.20 in WSW 6.9 mph 6.9 mph 65% 0.00 in WeatherDisplay:10.37 W/m2 CLR
11:52 38.1 °F 28.1 °F 30.21 in West 8.1 mph 8.1 mph 67% 0.00 in WeatherDisplay:10.37 W/m2 CLR
11:57 38.6 °F 27.5 °F 30.20 in SSW 8.1 mph 8.1 mph 64% 0.00 in WeatherDisplay:10.37 W/m2 CLR
12:02 38.6 °F 25.9 °F 30.20 in WSW 8.1 mph 8.1 mph 60% 0.00 in WeatherDisplay:10.37 W/m2 CLR
12:07 38.7 °F 26.8 °F 30.19 in West 10.4 mph 10.4 mph 62% 0.00 in WeatherDisplay:10.37 W/m2 CLR
12:12 38.7 °F 27.2 °F 30.19 in WSW 10.4 mph 10.4 mph 63% 0.00 in WeatherDisplay:10.37 W/m2 CLR
12:17 39.1 °F 26.8 °F 30.19 in SW 11.5 mph 11.5 mph 61% 0.00 in WeatherDisplay:10.37 W/m2 CLR
12:22 40.1 °F 26.9 °F 30.18 in SW 10.4 mph 10.4 mph 59% 0.00 in WeatherDisplay:10.37 W/m2 CLR
12:27 40.2 °F 27.0 °F 30.18 in SW 10.4 mph 10.4 mph 59% 0.00 in WeatherDisplay:10.37 W/m2 CLR
12:32 40.2 °F 27.0 °F 30.17 in SSW 11.5 mph 11.5 mph 59% 0.00 in WeatherDisplay:10.37 W/m2 CLR
12:37 40.2 °F 26.6 °F 30.17 in WSW 10.4 mph 10.4 mph 58% 0.00 in WeatherDisplay:10.37 W/m2 CLR
12:42 40.8 °F 27.2 °F 30.17 in WSW 8.1 mph 8.1 mph 58% 0.00 in WeatherDisplay:10.37 W/m2 CLR
12:47 40.4 °F 25.9 °F 30.17 in SW 10.4 mph 10.4 mph 56% 0.00 in WeatherDisplay:10.37 W/m2 CLR
12:52 40.3 °F 26.7 °F 30.17 in WSW 9.2 mph 9.2 mph 58% 0.00 in WeatherDisplay:10.37 W/m2 CLR
12:57 40.6 °F 26.1 °F 30.16 in SW 8.0 mph 8.0 mph 56% 0.00 in WeatherDisplay:10.37 W/m2 SCT
13:12 40.7 °F 25.3 °F 30.15 in SSW 11.5 mph 11.5 mph 54% 0.00 in WeatherDisplay:10.37 W/m2 SCT
13:22 39.7 °F 24.4 °F 30.15 in West 12.7 mph 12.7 mph 54% 0.00 in WeatherDisplay:10.37 W/m2 SCT
13:27 39.6 °F 25.2 °F 30.15 in WSW 9.2 mph 9.2 mph 56% 0.00 in WeatherDisplay:10.37 W/m2 SCT
13:32 39.8 °F 24.9 °F 30.16 in WSW 10.0 mph 10.0 mph 55% 0.00 in WeatherDisplay:10.37 W/m2 SCT
13:37 40.4 °F 25.5 °F 30.15 in West 10.4 mph 10.4 mph 55% 0.00 in WeatherDisplay:10.37 W/m2 SCT
13:42 40.8 °F 25.4 °F 30.15 in West 6.9 mph 6.9 mph 54% 0.00 in WeatherDisplay:10.37 W/m2 SCT
13:47 41.8 °F 25.4 °F 30.15 in WSW 7.0 mph 7.0 mph 52% 0.00 in WeatherDisplay:10.37 W/m2 SCT
13:57 42.1 °F 26.2 °F 30.15 in SW 8.1 mph 8.1 mph 53% 0.00 in WeatherDisplay:10.37 W/m2 SCT
14:02 42.3 °F 25.0 °F 30.14 in WSW 11.5 mph 11.5 mph 50% 0.00 in WeatherDisplay:10.37 W/m2 SCT
14:07 42.7 °F 25.8 °F 30.14 in SW 8.1 mph 8.1 mph 51% 0.00 in WeatherDisplay:10.37 W/m2 SCT
14:17 42.5 °F 25.1 °F 30.14 in SSW 9.2 mph 9.2 mph 50% 0.00 in WeatherDisplay:10.37 W/m2 BKN
14:22 42.6 °F 25.2 °F 30.14 in WSW 9.2 mph 9.2 mph 50% 0.00 in WeatherDisplay:10.37 W/m2 BKN
14:27 42.6 °F 24.3 °F 30.13 in SSW 12.0 mph 12.0 mph 48% 0.00 in WeatherDisplay:10.37 W/m2 BKN
14:32 42.1 °F 23.8 °F 30.12 in SW 11.5 mph 11.5 mph 48% 0.00 in WeatherDisplay:10.37 W/m2 BKN
14:37 42.0 °F 23.7 °F 30.13 in WSW 11.5 mph 11.5 mph 48% 0.00 in WeatherDisplay:10.37 W/m2 BKN
14:42 41.9 °F 24.1 °F 30.13 in West 11.5 mph 11.5 mph 49% 0.00 in WeatherDisplay:10.37 W/m2 BKN
14:47 42.0 °F 24.2 °F 30.13 in SSE 11.0 mph 11.0 mph 49% 0.00 in WeatherDisplay:10.37 W/m2 BKN
15:02 41.5 °F 23.2 °F 30.13 in WSW 10.4 mph 10.4 mph 48% 0.00 in WeatherDisplay:10.37 W/m2 BKN
15:07 41.5 °F 23.2 °F 30.14 in West 10.4 mph 10.4 mph 48% 0.00 in WeatherDisplay:10.37 W/m2 SCT
15:12 41.6 °F 22.8 °F 30.15 in SW 12.0 mph 12.0 mph 47% 0.00 in WeatherDisplay:10.37 W/m2 SCT
15:37 40.6 °F 22.9 °F 30.14 in SW 6.9 mph 6.9 mph 49% 0.00 in WeatherDisplay:10.37 W/m2 SCT
15:42 40.6 °F 22.9 °F 30.14 in WSW 10.4 mph 10.4 mph 49% 0.00 in WeatherDisplay:10.37 W/m2 SCT
15:47 40.6 °F 22.9 °F 30.13 in SSW 10.4 mph 10.4 mph 49% 0.00 in WeatherDisplay:10.37 W/m2 SCT
15:52 40.7 °F 23.0 °F 30.13 in West 9.2 mph 9.2 mph 49% 0.00 in WeatherDisplay:10.37 W/m2 SCT
15:57 40.6 °F 22.4 °F 30.13 in SW 10.4 mph 10.4 mph 48% 0.00 in WeatherDisplay:10.37 W/m2 SCT
16:02 40.7 °F 23.0 °F 30.13 in WSW 10.4 mph 10.4 mph 49% 0.00 in WeatherDisplay:10.37 W/m2 SCT
16:07 40.6 °F 22.9 °F 30.14 in WSW 10.4 mph 10.4 mph 49% 0.00 in WeatherDisplay:10.37 W/m2 BKN
16:12 40.5 °F 23.3 °F 30.14 in West 11.5 mph 11.5 mph 50% 0.00 in WeatherDisplay:10.37 W/m2 BKN
16:17 40.2 °F 23.0 °F 30.14 in SSW 9.2 mph 9.2 mph 50% 0.00 in WeatherDisplay:10.37 W/m2 BKN
16:22 40.0 °F 22.8 °F 30.14 in SW 8.1 mph 8.1 mph 50% 0.00 in WeatherDisplay:10.37 W/m2 BKN
16:27 39.8 °F 23.1 °F 30.14 in West 6.9 mph 6.9 mph 51% 0.00 in WeatherDisplay:10.37 W/m2 BKN
16:37 39.5 °F 22.8 °F 30.14 in SW 5.8 mph 5.8 mph 51% 0.00 in WeatherDisplay:10.37 W/m2 BKN
16:47 39.2 °F 23.5 °F 30.13 in WSW 4.6 mph 4.6 mph 53% 0.00 in WeatherDisplay:10.37 W/m2 BKN
16:52 39.0 °F 23.3 °F 30.13 in SW 3.5 mph 3.5 mph 53% 0.00 in WeatherDisplay:10.37 W/m2 BKN
17:07 38.7 °F 23.5 °F 30.13 in WSW 4.6 mph 4.6 mph 54% 0.00 in WeatherDisplay:10.37 W/m2 BKN
17:12 38.6 °F 23.4 °F 30.14 in WSW 4.6 mph 4.6 mph 54% 0.00 in WeatherDisplay:10.37 W/m2 BKN
17:27 38.1 °F 23.8 °F 30.14 in WSW 3.5 mph 3.5 mph 56% 0.00 in WeatherDisplay:10.37 W/m2 BKN
17:32 38.0 °F 23.7 °F 30.14 in WSW 3.5 mph 3.5 mph 56% 0.00 in WeatherDisplay:10.37 W/m2 BKN
17:42 37.8 °F 23.9 °F 30.14 in WSW 2.3 mph 2.3 mph 57% 0.00 in WeatherDisplay:10.37 W/m2 BKN
17:47 37.7 °F 23.8 °F 30.14 in WSW 2.3 mph 2.3 mph 57% 0.00 in WeatherDisplay:10.37 W/m2 BKN
17:52 37.5 °F 24.1 °F 30.14 in WSW 2.3 mph 2.3 mph 58% 0.00 in WeatherDisplay:10.37 W/m2 BKN
17:57 37.4 °F 24.0 °F 30.15 in WSW 2.3 mph 2.3 mph 58% 0.00 in WeatherDisplay:10.37 W/m2 BKN
18:07 37.1 °F 24.1 °F 30.15 in SW 2.3 mph 2.3 mph 59% 0.00 in WeatherDisplay:10.37 W/m2 BKN
18:12 36.9 °F 24.3 °F 30.15 in SW 1.2 mph 1.2 mph 60% 0.00 in WeatherDisplay:10.37 W/m2 BKN
18:17 36.6 °F 24.4 °F 30.15 in SW 1.2 mph   61% 0.00 in WeatherDisplay:10.37 W/m2 BKN
18:22 36.4 °F 24.2 °F 30.16 in Calm     61% 0.00 in WeatherDisplay:10.37 W/m2 BKN
18:27 36.1 °F 24.3 °F 30.16 in Calm     62% 0.00 in WeatherDisplay:10.37 W/m2 BKN
18:32 36.0 °F 24.6 °F 30.16 in Calm     63% 0.00 in WeatherDisplay:10.37 W/m2 BKN
18:37 35.8 °F 24.4 °F 30.15 in Calm     63% 0.00 in WeatherDisplay:10.37 W/m2 BKN
18:43 35.6 °F 24.6 °F 30.16 in Calm     64% 0.00 in WeatherDisplay:10.37 W/m2 BKN
18:48 35.3 °F 24.7 °F 30.16 in Calm     65% 0.00 in WeatherDisplay:10.37 W/m2 SCT
18:53 35.2 °F 24.6 °F 30.16 in Calm     65% 0.00 in WeatherDisplay:10.37 W/m2 SCT
18:58 34.9 °F 24.3 °F 30.15 in Calm     65% 0.00 in WeatherDisplay:10.37 W/m2 SCT
19:18 34.3 °F 24.8 °F 30.16 in Calm     68% 0.00 in WeatherDisplay:10.37 W/m2 SCT
19:33 33.9 °F 25.5 °F 30.16 in Calm     71% 0.00 in WeatherDisplay:10.37 W/m2 SCT
19:38 33.8 °F 25.0 °F 30.16 in Calm     70% 0.00 in WeatherDisplay:10.37 W/m2 SCT
19:48 33.7 °F 26.0 °F 30.16 in Calm     73% 0.00 in WeatherDisplay:10.37 W/m2 SCT
19:53 33.6 °F 25.9 °F 30.16 in Calm     73% 0.00 in WeatherDisplay:10.37 W/m2 SCT
19:58 33.5 °F 25.8 °F 30.16 in Calm     73% 0.00 in WeatherDisplay:10.37 W/m2 SCT
20:03 33.5 °F 25.8 °F 30.16 in Calm     73% 0.00 in WeatherDisplay:10.37 W/m2 SCT
20:18 33.6 °F 25.5 °F 30.15 in SW 2.0 mph 2.0 mph 72% 0.00 in WeatherDisplay:10.37 W/m2 SCT
20:23 34.1 °F 25.3 °F 30.15 in SW 3.5 mph 3.5 mph 70% 0.00 in WeatherDisplay:10.37 W/m2 BKN
20:28 34.4 °F 25.6 °F 30.15 in SW 3.5 mph 3.5 mph 70% 0.00 in WeatherDisplay:10.37 W/m2 BKN
20:33 34.6 °F 25.5 °F 30.15 in SW 2.3 mph 2.3 mph 69% 0.00 in WeatherDisplay:10.37 W/m2 BKN
20:38 34.9 °F 25.4 °F 30.15 in SW 3.5 mph 3.5 mph 68% 0.00 in WeatherDisplay:10.37 W/m2 BKN
20:43 35.1 °F 25.6 °F 30.15 in WSW 4.0 mph 4.0 mph 68% 0.00 in WeatherDisplay:10.37 W/m2 BKN
20:48 35.2 °F 25.3 °F 30.15 in WSW 3.5 mph 3.5 mph 67% 0.00 in WeatherDisplay:10.37 W/m2 BKN
20:53 35.1 °F 25.6 °F 30.15 in WSW 2.3 mph 2.3 mph 68% 0.00 in WeatherDisplay:10.37 W/m2 SCT
20:58 35.0 °F 25.9 °F 30.15 in WSW 2.3 mph 2.3 mph 69% 0.00 in WeatherDisplay:10.37 W/m2 SCT
21:03 34.4 °F 25.6 °F 30.15 in WSW 1.2 mph 1.2 mph 70% 0.00 in WeatherDisplay:10.37 W/m2 SCT
21:08 34.0 °F 25.2 °F 30.15 in Calm     70% 0.00 in WeatherDisplay:10.37 W/m2 SCT
21:18 33.3 °F 25.6 °F 30.14 in WSW 1.2 mph   73% 0.00 in WeatherDisplay:10.37 W/m2 SCT
21:23 33.2 °F 25.5 °F 30.15 in WSW 1.2 mph   73% 0.00 in WeatherDisplay:10.37 W/m2 SCT
21:28 32.9 °F 25.5 °F 30.15 in Calm     74% 0.00 in WeatherDisplay:10.37 W/m2 SCT
21:33 32.7 °F 25.6 °F 30.15 in WSW 1.2 mph   75% 0.00 in WeatherDisplay:10.37 W/m2 SCT
21:38 32.5 °F 25.5 °F 30.14 in WSW 1.2 mph   75% 0.00 in WeatherDisplay:10.37 W/m2 SCT
21:43 32.3 °F 25.3 °F 30.14 in Calm     75% 0.00 in WeatherDisplay:10.37 W/m2 SCT
21:48 32.3 °F 25.3 °F 30.14 in Calm     75% 0.00 in WeatherDisplay:10.37 W/m2 SCT
21:53 32.2 °F 25.5 °F 30.14 in Calm     76% 0.00 in WeatherDisplay:10.37 W/m2 SCT
21:58 32.1 °F 25.4 °F 30.14 in Calm     76% 0.00 in WeatherDisplay:10.37 W/m2 SCT
22:03 32.0 °F 25.6 °F 30.14 in Calm     77% 0.00 in WeatherDisplay:10.37 W/m2 SCT
22:08 31.9 °F 25.8 °F 30.14 in Calm     78% 0.00 in WeatherDisplay:10.37 W/m2 SCT
22:14 31.8 °F 25.4 °F 30.14 in Calm     77% 0.00 in WeatherDisplay:10.37 W/m2 SCT
22:19 31.7 °F 25.6 °F 30.14 in Calm     78% 0.00 in WeatherDisplay:10.37 W/m2 SCT
22:22 31.8 °F 25.4 °F 30.14 in Calm     77% 0.00 in WeatherDisplay:10.37 W/m2 SCT
22:23 31.8 °F 25.4 °F 30.14 in Calm     77% 0.00 in WeatherDisplay:10.37 W/m2 SCT
22:38 31.7 °F 25.9 °F 30.15 in Calm     79% 0.00 in WeatherDisplay:10.37 W/m2 SCT
22:48 31.5 °F 26.0 °F 30.15 in Calm     80% 0.00 in WeatherDisplay:10.37 W/m2 SCT
22:53 31.4 °F 25.9 °F 30.15 in Calm     80% 0.00 in WeatherDisplay:10.37 W/m2 SCT
22:58 31.4 °F 26.2 °F 30.15 in Calm     81% 0.00 in WeatherDisplay:10.37 W/m2 SCT
23:03 31.3 °F 26.4 °F 30.16 in Calm     82% 0.00 in WeatherDisplay:10.37 W/m2 SCT
23:09 31.2 °F 26.6 °F 30.15 in Calm     83% 0.00 in WeatherDisplay:10.37 W/m2 SCT
23:19 30.9 °F 26.3 °F 30.16 in Calm     83% 0.00 in WeatherDisplay:10.37 W/m2 SCT
23:29 30.6 °F 26.1 °F 30.15 in Calm     83% 0.00 in WeatherDisplay:10.37 W/m2 SCT
23:50 29.9 °F 25.4 °F 30.15 in Calm     83% 0.00 in WeatherDisplay:10.37 W/m2 SCT
23:55 29.8 °F 25.3 °F 30.15 in Calm     83% 0.00 in WeatherDisplay:10.37 W/m2 SCT
Smyth Weather
Compliments of Weather Underground - 2.75 mb